Phnom Penh, Cambodia
Current Conditions -  °F | °C
As of 7:00 AM on Wednesday 22 Oct 2014 (Local Time) from VDPP Reporting Station
Broken Clouds Broken Clouds  
Wind Chill: 81°   Ceiling: 4000
Heat Index: 87°   Visibility: 6mi
Dew Point: 77°   Wind: 1mph
Humidity: 89%   Direction: NA
Pressure: 29.88"   Gusts: NA
Location:  11.56°N, 104.92°E
Report Text: VDPP 220000Z VRB01KT 9000 SCT017 FEW018CB BKN040 27/25 Q1012 CB:N/W
Loading
Personal Weather Stations






























Interactive Weather Map
Tropical Storm Tracking
New forecast layout! Learn more

10-Day Weather Forecast

Advertisements
Track Severe Weather on mobile